Time;durP1;ratioP1;P1;durP2;ratioP2;P2;SDS_P1;SDS_P2;PMS_P1;PMS_P2;Temp;Humidity;BMP_temperature;BMP_pressure;BME280_temperature;BME280_humidity;BME280_pressure;Samples;Min_cycle;Max_cycle;Signal;HPM_P1;HPM_P2
2023/10/28 00:00:38;;;;;;;59.75;28.13;;;7.10;99.90;;;;;;5114213;28;20019;-77
2023/10/28 00:03:05;;;;;;;56.58;28.25;;;7.10;99.90;;;;;;5136501;27;20481;-81
2023/10/28 00:05:31;;;;;;;58.60;29.63;;;7.10;99.90;;;;;;5112601;28;20016;-77
2023/10/28 00:07:57;;;;;;;49.22;26.25;;;7.10;99.90;;;;;;5112651;28;20102;-77
2023/10/28 00:10:23;;;;;;;46.75;26.30;;;7.10;99.90;;;;;;5112598;28;20042;-81
2023/10/28 00:12:50;;;;;;;51.78;26.75;;;7.10;99.90;;;;;;5113947;28;20023;-77
2023/10/28 00:15:18;;;;;;;44.30;25.38;;;7.10;99.90;;;;;;5113726;28;20023;-82
2023/10/28 00:17:47;;;;;;;45.85;26.70;;;7.10;99.90;;;;;;5112146;28;20473;-81
2023/10/28 00:20:14;;;;;;;48.00;24.58;;;7.10;99.90;;;;;;5113865;28;20023;-82
2023/10/28 00:22:40;;;;;;;41.55;23.60;;;7.10;99.90;;;;;;5112206;28;20446;-77
2023/10/28 00:25:06;;;;;;;45.13;25.48;;;7.10;99.90;;;;;;5113625;28;20051;-82
2023/10/28 00:27:33;;;;;;;44.45;24.52;;;7.10;99.90;;;;;;5112166;28;20016;-77
2023/10/28 00:30:00;;;;;;;43.08;24.63;;;7.10;99.90;;;;;;5112180;28;20043;-81
2023/10/28 00:32:26;;;;;;;45.90;25.38;;;7.10;99.90;;;;;;5112546;28;20023;-81
2023/10/28 00:34:51;;;;;;;46.60;25.30;;;7.10;99.90;;;;;;5146009;27;20027;-77
2023/10/28 00:37:17;;;;;;;42.53;26.13;;;7.10;99.90;;;;;;5103602;28;20068;-77
2023/10/28 00:39:43;;;;;;;46.35;25.15;;;7.10;99.90;;;;;;5112067;28;20058;-81
2023/10/28 00:42:13;;;;;;;41.28;24.30;;;7.10;99.90;;;;;;5111565;28;20373;-82
2023/10/28 00:44:39;;;;;;;41.65;24.05;;;7.10;99.90;;;;;;5113163;28;20024;-81
2023/10/28 00:47:06;;;;;;;44.03;24.25;;;7.10;99.90;;;;;;5111419;28;20026;-77
2023/10/28 00:49:31;;;;;;;45.38;25.38;;;7.10;99.90;;;;;;5111769;28;20032;-82
2023/10/28 00:51:58;;;;;;;43.45;24.85;;;7.10;99.90;;;;;;5113098;28;20473;-77
2023/10/28 00:54:25;;;;;;;42.65;23.95;;;7.10;99.90;;;;;;5108306;28;20034;-81
2023/10/28 00:56:51;;;;;;;42.85;24.48;;;7.10;99.90;;;;;;5111211;28;20028;-82
2023/10/28 00:59:17;;;;;;;47.03;24.70;;;7.10;99.90;;;;;;5112962;28;20118;-77
2023/10/28 01:01:43;;;;;;;44.05;24.77;;;7.10;99.90;;;;;;5112567;28;20091;-77
2023/10/28 01:04:08;;;;;;;39.13;23.08;;;7.10;99.90;;;;;;5142273;27;20028;-81
2023/10/28 01:06:34;;;;;;;36.00;20.95;;;7.10;99.90;;;;;;5112935;28;20037;-81
2023/10/28 01:09:00;;;;;;;40.65;22.80;;;7.10;99.90;;;;;;5113013;28;20469;-77
2023/10/28 01:11:25;;;;;;;33.63;20.38;;;7.10;99.90;;;;;;5112871;28;20031;-81
2023/10/28 01:13:51;;;;;;;34.50;22.42;;;7.10;99.90;;;;;;5112939;28;20380;-81
2023/10/28 01:16:17;;;;;;;33.40;21.05;;;7.20;99.90;;;;;;5113000;28;20072;-76
2023/10/28 01:18:43;;;;;;;36.78;21.00;;;7.20;99.90;;;;;;5112917;28;20020;-77
2023/10/28 01:21:10;;;;;;;32.75;20.92;;;7.20;99.90;;;;;;5113027;28;20052;-76
2023/10/28 01:23:36;;;;;;;36.22;19.95;;;7.20;99.90;;;;;;5112969;28;20023;-80
2023/10/28 01:26:02;;;;;;;34.97;20.70;;;7.10;99.90;;;;;;5111628;28;20015;-77
2023/10/28 01:28:29;;;;;;;33.38;20.75;;;7.10;99.90;;;;;;5111487;28;20034;-82
2023/10/28 01:30:56;;;;;;;35.05;20.40;;;7.10;99.90;;;;;;5111428;28;20042;-77
2023/10/28 01:33:22;;;;;;;31.48;19.67;;;7.10;99.90;;;;;;5111526;28;20031;-77
2023/10/28 01:35:47;;;;;;;29.10;19.25;;;7.20;99.90;;;;;;5112911;28;20016;-81
2023/10/28 01:38:13;;;;;;;35.45;21.15;;;7.10;99.90;;;;;;5112598;28;20393;-77
2023/10/28 01:40:39;;;;;;;38.25;21.15;;;7.10;99.90;;;;;;5111423;28;20022;-81
2023/10/28 01:43:05;;;;;;;32.50;19.67;;;7.10;99.90;;;;;;5112397;28;20511;-81
2023/10/28 01:45:31;;;;;;;32.28;20.40;;;7.10;99.90;;;;;;5112053;28;20023;-81
2023/10/28 01:47:57;;;;;;;32.40;19.67;;;7.10;99.90;;;;;;5107906;28;20072;-81
2023/10/28 01:50:22;;;;;;;33.25;19.80;;;7.10;99.90;;;;;;5111371;28;20063;-77
2023/10/28 01:52:48;;;;;;;28.17;18.30;;;7.10;99.90;;;;;;5112573;28;20015;-77
2023/10/28 01:55:14;;;;;;;29.75;17.70;;;7.10;99.90;;;;;;5111193;28;20473;-81
2023/10/28 01:57:40;;;;;;;32.20;18.95;;;7.10;99.90;;;;;;5112605;28;20098;-81
2023/10/28 02:00:07;;;;;;;34.40;19.00;;;7.10;99.90;;;;;;5111200;28;20442;-78
2023/10/28 02:02:36;;;;;;;30.05;18.70;;;7.10;99.90;;;;;;5107563;28;20020;-76
2023/10/28 02:05:02;;;;;;;35.10;20.42;;;7.10;99.90;;;;;;5112239;28;20481;-81
2023/10/28 02:07:28;;;;;;;38.83;22.40;;;7.20;99.90;;;;;;5116111;28;20023;-81
2023/10/28 02:09:53;;;;;;;38.45;22.73;;;7.20;99.90;;;;;;5115039;28;20027;-81
2023/10/28 02:12:19;;;;;;;41.55;23.65;;;7.20;99.90;;;;;;5116064;28;20037;-81
2023/10/28 02:14:46;;;;;;;48.53;26.90;;;7.20;99.90;;;;;;5116299;28;20015;-81
2023/10/28 02:17:12;;;;;;;49.20;27.23;;;7.20;99.90;;;;;;5114715;28;20020;-80
2023/10/28 02:19:38;;;;;;;48.60;28.00;;;7.20;99.90;;;;;;5114903;28;20072;-77
2023/10/28 02:22:04;;;;;;;56.15;30.95;;;7.20;99.90;;;;;;5114504;28;20038;-76
2023/10/28 02:24:30;;;;;;;57.83;30.70;;;7.20;99.90;;;;;;5114730;28;20040;-81
2023/10/28 02:26:55;;;;;;;58.70;30.85;;;7.20;99.90;;;;;;5114313;28;20023;-77
2023/10/28 02:29:22;;;;;;;57.80;32.45;;;7.20;99.90;;;;;;5114719;28;20024;-77
2023/10/28 02:31:48;;;;;;;64.00;32.28;;;7.20;99.90;;;;;;5115560;28;20046;-77
2023/10/28 02:34:15;;;;;;;61.38;34.10;;;7.20;99.90;;;;;;5114566;28;20066;-77
2023/10/28 02:36:41;;;;;;;66.75;34.70;;;7.20;99.90;;;;;;5114411;28;20024;-77
2023/10/28 02:39:06;;;;;;;68.85;34.72;;;7.30;99.90;;;;;;5114410;28;20111;-81
2023/10/28 02:41:33;;;;;;;66.28;30.50;;;7.20;99.90;;;;;;5114114;28;20107;-77
2023/10/28 02:43:58;;;;;;;57.63;29.52;;;7.30;99.90;;;;;;5114315;28;20039;-77
2023/10/28 02:46:25;;;;;;;54.33;28.15;;;7.30;99.90;;;;;;5114772;28;20443;-81
2023/10/28 02:48:54;;;;;;;45.47;24.65;;;7.30;99.90;;;;;;5115626;28;20540;-77
2023/10/28 02:51:20;;;;;;;47.15;24.00;;;7.20;99.90;;;;;;5114101;28;20015;-77
2023/10/28 02:53:45;;;;;;;44.10;22.55;;;7.20;99.90;;;;;;5114260;28;20046;-77
2023/10/28 02:56:11;;;;;;;40.40;22.20;;;7.20;99.90;;;;;;5113839;28;20102;-77
2023/10/28 02:58:38;;;;;;;34.60;19.25;;;7.20;99.90;;;;;;5114101;28;20020;-77
2023/10/28 03:01:11;;;;;;;32.55;17.65;;;7.20;99.90;;;;;;5114921;28;20023;-82
2023/10/28 03:03:38;;;;;;;28.35;17.45;;;7.20;99.90;;;;;;5113998;28;20076;-77
2023/10/28 03:06:03;;;;;;;30.15;17.33;;;7.20;99.90;;;;;;5113777;28;20085;-77
2023/10/28 03:08:29;;;;;;;32.35;17.77;;;7.20;99.90;;;;;;5113840;28;20024;-77
2023/10/28 03:10:55;;;;;;;29.58;16.10;;;7.20;99.90;;;;;;5113542;28;20023;-81
2023/10/28 03:13:21;;;;;;;29.17;15.63;;;7.20;99.90;;;;;;5114904;28;20028;-77
2023/10/28 03:15:46;;;;;;;27.17;16.08;;;7.20;99.90;;;;;;5113231;28;20378;-81
2023/10/28 03:18:15;;;;;;;27.73;15.38;;;7.30;99.90;;;;;;5114348;28;20016;-81
2023/10/28 03:20:41;;;;;;;23.20;15.30;;;7.20;99.90;;;;;;5114591;28;20024;-82
2023/10/28 03:23:07;;;;;;;27.50;14.50;;;7.20;99.90;;;;;;5113477;28;20090;-77
2023/10/28 03:25:33;;;;;;;24.48;14.25;;;7.20;99.90;;;;;;5113289;28;20501;-82
2023/10/28 03:28:02;;;;;;;24.23;14.15;;;7.20;99.90;;;;;;5114855;28;20447;-82
2023/10/28 03:30:28;;;;;;;18.75;12.70;;;7.20;99.90;;;;;;5110604;28;20086;-79
2023/10/28 03:32:53;;;;;;;22.85;14.80;;;7.20;99.90;;;;;;5114440;28;20027;-77
2023/10/28 03:35:19;;;;;;;24.70;15.27;;;7.20;99.90;;;;;;5113289;28;20024;-77
2023/10/28 03:37:45;;;;;;;20.55;14.40;;;7.20;99.90;;;;;;5114668;28;20102;-82
2023/10/28 03:40:11;;;;;;;20.60;13.23;;;7.20;99.90;;;;;;5114548;28;20035;-82
2023/10/28 03:42:37;;;;;;;21.65;12.95;;;7.20;99.90;;;;;;5112991;28;20019;-77
2023/10/28 03:45:09;;;;;;;19.30;12.07;;;7.20;99.90;;;;;;5112803;28;20169;-81
2023/10/28 03:47:34;;;;;;;17.15;11.70;;;7.20;99.90;;;;;;5114127;28;20023;-77
2023/10/28 03:50:00;;;;;;;18.05;11.55;;;7.10;99.90;;;;;;5113164;28;20030;-82
2023/10/28 03:52:27;;;;;;;17.80;10.80;;;7.10;99.90;;;;;;5112756;28;20022;-77
2023/10/28 03:54:52;;;;;;;18.55;10.68;;;7.10;99.90;;;;;;5113010;28;20116;-82
2023/10/28 03:57:18;;;;;;;20.92;11.55;;;7.10;99.90;;;;;;5112884;28;20020;-77
2023/10/28 03:59:46;;;;;;;16.85;10.57;;;7.10;99.90;;;;;;5114281;28;20028;-76
2023/10/28 04:02:12;;;;;;;14.68;9.93;;;7.10;99.90;;;;;;5112807;28;20125;-78
2023/10/28 04:04:38;;;;;;;24.13;11.60;;;7.20;99.90;;;;;;5114035;28;20031;-77
2023/10/28 04:07:04;;;;;;;16.55;9.55;;;7.10;99.90;;;;;;5113865;28;20034;-81
2023/10/28 04:09:30;;;;;;;12.85;8.38;;;7.10;99.90;;;;;;5114001;28;20020;-80
2023/10/28 04:11:55;;;;;;;14.75;9.57;;;7.20;99.90;;;;;;5112350;28;20020;-77
2023/10/28 04:14:21;;;;;;;14.52;10.60;;;7.20;99.90;;;;;;5114036;28;20020;-81
2023/10/28 04:16:47;;;;;;;15.98;10.73;;;7.20;99.90;;;;;;5113698;28;20020;-81
2023/10/28 04:19:12;;;;;;;16.38;10.85;;;7.20;99.90;;;;;;5113981;28;20164;-77
2023/10/28 04:21:38;;;;;;;14.48;9.43;;;7.20;99.90;;;;;;5112276;28;20051;-81
2023/10/28 04:24:05;;;;;;;15.57;10.32;;;7.20;99.90;;;;;;5112553;28;20059;-77
2023/10/28 04:26:30;;;;;;;14.80;10.02;;;7.20;99.90;;;;;;5112288;28;20028;-77
2023/10/28 04:29:00;;;;;;;14.90;10.05;;;7.10;99.90;;;;;;5113480;28;20034;-77
2023/10/28 04:31:27;;;;;;;12.00;8.70;;;7.20;99.90;;;;;;5112141;28;20117;-81
2023/10/28 04:33:53;;;;;;;11.30;8.43;;;7.20;99.90;;;;;;5113690;28;20131;-77
2023/10/28 04:36:19;;;;;;;15.30;9.77;;;7.10;99.90;;;;;;5112085;28;20047;-81
2023/10/28 04:38:44;;;;;;;14.30;9.20;;;7.20;99.90;;;;;;5113573;28;20069;-77
2023/10/28 04:41:10;;;;;;;12.65;8.68;;;7.20;99.90;;;;;;5113278;28;20465;-81
2023/10/28 04:43:36;;;;;;;14.98;8.38;;;7.10;99.90;;;;;;5111909;28;20035;-77
2023/10/28 04:46:01;;;;;;;14.93;8.90;;;7.10;99.90;;;;;;5111599;28;20028;-77
2023/10/28 04:48:28;;;;;;;13.30;9.32;;;7.10;99.90;;;;;;5112132;28;20367;-76
2023/10/28 04:50:55;;;;;;;13.05;8.88;;;7.10;99.90;;;;;;5111760;28;20084;-80
2023/10/28 04:53:22;;;;;;;14.45;8.38;;;7.10;99.90;;;;;;5108793;28;20533;-81
2023/10/28 04:55:48;;;;;;;15.00;9.18;;;7.20;99.90;;;;;;5112783;28;20019;-77
2023/10/28 04:58:14;;;;;;;13.07;9.13;;;7.10;99.90;;;;;;5111721;28;20016;-81
2023/10/28 05:00:40;;;;;;;13.57;8.55;;;7.10;99.90;;;;;;5112886;28;20422;-76
2023/10/28 05:03:06;;;;;;;14.07;8.35;;;7.20;99.90;;;;;;5111825;28;20499;-77
2023/10/28 05:05:32;;;;;;;11.57;7.60;;;7.10;99.90;;;;;;5111409;28;20051;-77
2023/10/28 05:07:57;;;;;;;11.30;8.45;;;7.10;99.90;;;;;;5111837;28;20400;-80
2023/10/28 05:10:23;;;;;;;12.32;8.85;;;7.10;99.90;;;;;;5112772;28;20019;-77
2023/10/28 05:12:49;;;;;;;11.85;7.70;;;7.10;99.90;;;;;;5113027;28;20028;-77
2023/10/28 05:15:15;;;;;;;13.73;9.07;;;7.10;99.90;;;;;;5111283;28;20054;-76
2023/10/28 05:17:41;;;;;;;11.93;8.75;;;7.10;99.90;;;;;;5111762;28;20044;-79
2023/10/28 05:20:08;;;;;;;16.42;10.32;;;7.10;99.90;;;;;;5109648;28;20073;-80
2023/10/28 05:22:35;;;;;;;13.35;9.30;;;7.10;99.90;;;;;;5108397;28;20019;-77
2023/10/28 05:25:02;;;;;;;14.68;10.02;;;7.10;99.90;;;;;;5111495;28;20028;-81
2023/10/28 05:27:28;;;;;;;15.18;10.55;;;7.10;99.90;;;;;;5111543;28;20488;-81
2023/10/28 05:29:54;;;;;;;18.15;10.80;;;7.10;99.90;;;;;;5112430;28;20043;-76
2023/10/28 05:32:19;;;;;;;17.17;10.75;;;7.10;99.90;;;;;;5111514;28;20461;-76
2023/10/28 05:34:45;;;;;;;15.25;9.95;;;7.10;99.90;;;;;;5101259;28;20050;-81
2023/10/28 05:37:10;;;;;;;16.63;9.50;;;7.10;99.90;;;;;;5109501;28;20469;-81
2023/10/28 05:39:40;;;;;;;21.35;11.70;;;7.10;99.90;;;;;;5107948;28;20015;-76
2023/10/28 05:42:06;;;;;;;12.90;8.93;;;7.10;99.90;;;;;;5109857;28;20027;-76
2023/10/28 05:44:32;;;;;;;11.65;8.45;;;7.10;99.90;;;;;;5115297;28;20441;-76
2023/10/28 05:46:59;;;;;;;14.82;8.73;;;7.10;99.90;;;;;;5111369;28;20020;-80
2023/10/28 05:49:25;;;;;;;13.13;8.55;;;7.10;99.90;;;;;;5113477;28;20060;-76
2023/10/28 05:51:51;;;;;;;17.25;10.32;;;7.10;99.90;;;;;;5115965;28;20016;-76
2023/10/28 05:54:17;;;;;;;22.65;12.35;;;7.10;99.90;;;;;;5116562;28;20015;-80
2023/10/28 05:56:42;;;;;;;19.67;11.20;;;7.10;99.90;;;;;;5115415;27;20026;-82
2023/10/28 05:59:08;;;;;;;16.15;10.25;;;7.00;99.90;;;;;;5104819;28;20015;-81
2023/10/28 06:01:37;;;;;;;15.85;10.75;;;7.00;99.90;;;;;;5113000;28;20045;-77
2023/10/28 06:04:03;;;;;;;15.90;9.15;;;7.00;99.90;;;;;;5112891;28;20110;-77
2023/10/28 06:06:29;;;;;;;12.98;8.93;;;7.00;99.90;;;;;;5111484;28;20016;-77
2023/10/28 06:08:57;;;;;;;17.92;9.52;;;7.00;99.90;;;;;;5103580;28;20137;-77
2023/10/28 06:11:23;;;;;;;15.65;10.27;;;7.00;99.90;;;;;;5112658;28;20027;-82
2023/10/28 06:13:49;;;;;;;17.73;10.48;;;6.90;99.90;;;;;;5113599;28;20032;-81
2023/10/28 06:16:15;;;;;;;17.40;9.93;;;7.00;99.90;;;;;;5103012;28;20022;-76
2023/10/28 06:18:40;;;;;;;17.05;10.10;;;6.90;99.90;;;;;;5099350;28;20473;-81
2023/10/28 06:21:06;;;;;;;16.45;10.63;;;7.00;99.90;;;;;;5096330;27;20012;-82
2023/10/28 06:23:32;;;;;;;18.65;11.30;;;7.00;99.90;;;;;;5112495;28;20075;-81
2023/10/28 06:25:58;;;;;;;17.45;11.73;;;7.00;99.90;;;;;;5108285;27;20027;-81
2023/10/28 06:28:23;;;;;;;16.50;10.25;;;7.00;99.90;;;;;;5119981;27;20019;-82
2023/10/28 06:30:50;;;;;;;16.50;10.25;;;7.00;99.90;;;;;;5109324;28;20051;-81
2023/10/28 06:33:17;;;;;;;17.67;10.05;;;7.00;99.90;;;;;;5115866;28;20073;-77
2023/10/28 06:35:43;;;;;;;14.55;9.30;;;7.10;99.90;;;;;;5112602;28;20038;-77
2023/10/28 06:38:09;;;;;;;25.52;15.90;;;7.20;99.90;;;;;;5102163;28;20035;-77
2023/10/28 06:40:38;;;;;;;46.03;25.67;;;7.10;99.90;;;;;;5102626;28;20021;-77
2023/10/28 06:43:04;;;;;;;79.72;37.50;;;7.20;99.90;;;;;;5101890;28;20115;-76
2023/10/28 06:45:30;;;;;;;68.60;32.78;;;7.20;99.90;;;;;;5111374;28;20030;-77
2023/10/28 06:47:56;;;;;;;154.32;65.68;;;7.20;99.90;;;;;;5111663;28;20098;-80
2023/10/28 06:50:21;;;;;;;141.98;62.67;;;7.20;99.90;;;;;;5111437;28;20381;-80
2023/10/28 06:52:48;;;;;;;241.80;97.75;;;7.30;99.90;;;;;;5096371;28;20062;-80
2023/10/28 06:55:15;;;;;;;404.98;147.50;;;7.40;99.90;;;;;;5101679;28;20024;-80
2023/10/28 06:57:44;;;;;;;250.68;94.97;;;7.50;99.90;;;;;;5110023;28;20019;-81
2023/10/28 07:00:14;;;;;;;185.48;69.53;;;7.50;99.90;;;;;;5112355;28;20016;-80
2023/10/28 07:02:40;;;;;;;113.05;45.65;;;7.60;99.90;;;;;;5113617;28;20026;-77
2023/10/28 07:05:08;;;;;;;56.58;22.02;;;7.60;99.90;;;;;;5109543;28;20028;-80
2023/10/28 07:07:37;;;;;;;107.68;42.42;;;7.70;99.90;;;;;;5113189;28;20016;-81
2023/10/28 07:10:04;;;;;;;127.43;52.08;;;7.80;99.90;;;;;;5102693;28;20032;-82
2023/10/28 07:12:29;;;;;;;51.30;21.25;;;7.70;99.90;;;;;;5112226;28;20031;-82
2023/10/28 07:14:55;;;;;;;79.72;24.77;;;7.80;99.90;;;;;;5147509;27;20381;-81
2023/10/28 07:17:22;;;;;;;34.13;14.20;;;7.80;99.90;;;;;;5101858;28;20030;-82
2023/10/28 07:19:54;;;;;;;57.75;25.10;;;7.90;99.90;;;;;;5105680;28;20019;-82
2023/10/28 07:22:20;;;;;;;281.08;115.25;;;8.00;99.90;;;;;;5108528;28;20461;-82
2023/10/28 07:24:49;;;;;;;209.15;77.15;;;8.10;99.90;;;;;;5115132;28;20122;-83
2023/10/28 07:27:16;;;;;;;102.65;31.35;;;8.20;99.90;;;;;;5110366;28;20019;-82
2023/10/28 07:29:42;;;;;;;23.55;10.40;;;8.30;99.90;;;;;;5107972;28;20024;-82
2023/10/28 07:32:09;;;;;;;65.38;28.58;;;8.30;99.90;;;;;;5114383;28;20060;-82
2023/10/28 07:34:35;;;;;;;47.80;26.75;;;8.40;99.90;;;;;;5113337;28;20015;-82
2023/10/28 07:37:03;;;;;;;56.63;27.45;;;8.50;99.90;;;;;;5109303;28;20023;-82
2023/10/28 07:39:29;;;;;;;31.13;11.48;;;8.60;99.90;;;;;;5112592;28;20437;-81
2023/10/28 07:41:55;;;;;;;20.08;8.25;;;8.70;99.90;;;;;;5105730;28;20110;-78
2023/10/28 07:44:21;;;;;;;20.55;8.13;;;8.80;99.90;;;;;;5100036;28;20371;-77
2023/10/28 07:46:46;;;;;;;66.65;35.17;;;8.90;99.90;;;;;;5113097;28;20023;-78
2023/10/28 07:49:12;;;;;;;21.60;12.45;;;9.00;99.90;;;;;;5114313;28;20019;-82
2023/10/28 07:51:38;;;;;;;141.48;62.22;;;9.10;99.90;;;;;;5114442;28;20076;-82
2023/10/28 07:54:04;;;;;;;27.17;9.43;;;9.20;99.90;;;;;;5112984;28;20065;-78
2023/10/28 07:56:31;;;;;;;16.90;8.32;;;9.30;99.90;;;;;;5113100;28;20399;-78
2023/10/28 07:59:00;;;;;;;11.05;6.57;;;9.40;99.90;;;;;;5113314;28;20065;-78
2023/10/28 08:01:29;;;;;;;21.98;11.63;;;9.50;99.90;;;;;;5099935;28;20016;-83
2023/10/28 08:03:56;;;;;;;14.18;8.65;;;9.60;99.90;;;;;;5113360;27;20067;-78
2023/10/28 08:06:23;;;;;;;39.85;23.52;;;9.70;99.90;;;;;;5112689;28;20628;-77
2023/10/28 08:08:48;;;;;;;19.25;8.88;;;9.80;99.90;;;;;;5110198;28;20020;-78
2023/10/28 08:11:16;;;;;;;12.80;6.60;;;9.90;99.90;;;;;;5114849;28;20028;-82
2023/10/28 08:13:42;;;;;;;10.18;6.10;;;10.00;99.90;;;;;;5112482;28;20035;-77
2023/10/28 08:16:09;;;;;;;8.40;5.07;;;10.00;99.90;;;;;;5114135;28;20020;-83
2023/10/28 08:18:35;;;;;;;9.32;4.35;;;10.10;99.90;;;;;;5111346;28;20039;-77
2023/10/28 08:21:02;;;;;;;15.15;7.75;;;10.10;99.90;;;;;;5093340;28;20569;-83
2023/10/28 08:23:30;;;;;;;10.32;5.22;;;10.20;99.90;;;;;;5109091;28;20034;-83
2023/10/28 08:25:57;;;;;;;8.40;5.25;;;10.30;99.90;;;;;;5113656;28;20063;-78
2023/10/28 08:28:22;;;;;;;10.10;4.95;;;10.40;99.90;;;;;;5112418;28;20107;-77
2023/10/28 08:30:48;;;;;;;4.88;3.53;;;10.50;99.90;;;;;;5113758;28;20540;-83
2023/10/28 08:33:14;;;;;;;5.45;3.67;;;10.50;99.90;;;;;;5113379;28;20103;-77
2023/10/28 08:35:39;;;;;;;13.85;6.78;;;10.60;99.90;;;;;;5112650;28;20022;-83
2023/10/28 08:38:05;;;;;;;6.25;3.42;;;10.60;99.90;;;;;;5103500;28;20028;-78
2023/10/28 08:40:34;;;;;;;5.10;3.30;;;10.70;99.90;;;;;;5101619;28;20537;-83
2023/10/28 08:43:00;;;;;;;9.50;3.75;;;10.70;99.90;;;;;;5103812;28;20162;-82
2023/10/28 08:45:27;;;;;;;8.48;3.72;;;10.70;99.90;;;;;;5109485;28;20540;-82
2023/10/28 08:47:53;;;;;;;7.43;5.50;;;10.80;99.90;;;;;;5110618;28;20476;-78
2023/10/28 08:50:24;;;;;;;7.10;3.10;;;10.80;99.90;;;;;;5112070;28;20532;-77
2023/10/28 08:52:55;;;;;;;7.15;3.20;;;10.90;99.90;;;;;;5110173;28;20035;-77
2023/10/28 08:55:23;;;;;;;6.05;3.40;;;10.90;99.90;;;;;;5103077;28;20469;-77
2023/10/28 08:57:51;;;;;;;5.93;3.60;;;10.90;99.90;;;;;;5113319;28;20065;-82
2023/10/28 09:00:19;;;;;;;4.68;2.33;;;11.00;99.90;;;;;;5100099;28;20468;-82
2023/10/28 09:02:47;;;;;;;3.55;2.90;;;11.00;99.90;;;;;;5100090;28;20417;-82
2023/10/28 09:05:14;;;;;;;5.57;3.13;;;11.10;99.90;;;;;;5108881;28;20028;-77
2023/10/28 09:07:40;;;;;;;5.00;2.80;;;11.10;99.90;;;;;;5107567;28;20015;-77
2023/10/28 09:10:06;;;;;;;4.32;2.47;;;11.10;99.90;;;;;;5113042;28;20996;-77
2023/10/28 09:12:32;;;;;;;5.22;2.30;;;11.20;99.90;;;;;;5108877;28;20043;-77
2023/10/28 09:14:58;;;;;;;4.07;1.98;;;11.20;99.90;;;;;;5114270;28;20091;-77
2023/10/28 09:17:24;;;;;;;6.68;4.78;;;11.30;99.90;;;;;;5115569;28;20146;-77
2023/10/28 09:19:53;;;;;;;6.88;3.20;;;11.40;99.90;;;;;;5116241;28;20020;-81
2023/10/28 09:22:18;;;;;;;4.43;2.50;;;11.50;99.90;;;;;;5112050;28;20156;-82
2023/10/28 09:24:47;;;;;;;3.95;2.85;;;11.50;99.90;;;;;;5113546;28;20571;-82
2023/10/28 09:27:14;;;;;;;3.55;2.08;;;11.50;99.90;;;;;;5107854;28;20027;-81
2023/10/28 09:29:43;;;;;;;4.20;2.00;;;11.50;99.90;;;;;;5116642;28;20422;-80
2023/10/28 09:32:10;;;;;;;5.60;4.10;;;11.60;99.90;;;;;;5115219;28;20030;-81
2023/10/28 09:34:38;;;;;;;5.93;3.42;;;11.60;99.90;;;;;;5115504;28;20023;-81
2023/10/28 09:37:05;;;;;;;3.30;2.42;;;11.70;99.90;;;;;;5116082;28;20062;-81
2023/10/28 09:39:35;;;;;;;3.67;2.30;;;11.60;99.90;;;;;;5116870;28;20020;-80
2023/10/28 09:42:02;;;;;;;4.15;1.98;;;11.70;99.90;;;;;;5112244;28;20038;-81
2023/10/28 09:44:28;;;;;;;2.83;2.28;;;11.70;99.90;;;;;;5112577;28;20024;-82
2023/10/28 09:47:05;;;;;;;7.50;5.43;;;11.80;99.90;;;;;;5114604;28;20028;-81
2023/10/28 09:49:31;;;;;;;8.13;3.15;;;11.90;99.90;;;;;;5114505;28;20020;-81
2023/10/28 09:52:07;;;;;;;6.32;2.22;;;12.00;99.90;;;;;;5111866;28;20030;-81
2023/10/28 09:54:36;;;;;;;3.08;2.00;;;12.10;99.90;;;;;;5111725;28;20026;-81
2023/10/28 09:57:02;;;;;;;8.43;2.40;;;12.30;99.90;;;;;;5111325;28;20039;-81
2023/10/28 09:59:33;;;;;;;4.60;2.45;;;12.50;99.90;;;;;;5111125;28;20701;-81
2023/10/28 10:02:22;;;;;;;9.00;5.00;;;12.60;99.90;;;;;;5113959;28;20055;-81
2023/10/28 10:05:28;;;;;;;7.03;2.85;;;12.70;99.90;;;;;;5104878;28;20110;-76
2023/10/28 10:07:54;;;;;;;5.55;2.53;;;12.80;99.90;;;;;;5103981;28;20035;-76
2023/10/28 10:10:20;;;;;;;2.22;2.03;;;12.80;99.90;;;;;;5113987;28;20073;-77
2023/10/28 10:12:50;;;;;;;3.88;1.98;;;12.80;99.90;;;;;;5105651;28;20023;-77
2023/10/28 10:15:22;;;;;;;5.13;2.08;;;12.90;99.90;;;;;;5110761;28;20083;-77
2023/10/28 10:17:57;;;;;;;2.63;1.70;;;12.90;99.90;;;;;;5112346;28;20108;-77
2023/10/28 10:20:27;;;;;;;5.55;1.70;;;13.10;99.90;;;;;;5112181;28;20034;-77
2023/10/28 10:23:00;;;;;;;4.80;1.85;;;13.20;99.90;;;;;;5114304;28;20020;-77
2023/10/28 10:25:43;;;;;;;3.45;1.70;;;13.20;99.90;;;;;;5112143;28;20040;-83
2023/10/28 10:28:19;;;;;;;4.60;1.45;;;13.30;99.90;;;;;;5102327;28;20027;-82
2023/10/28 10:30:45;;;;;;;3.40;2.15;;;13.40;99.90;;;;;;5110067;28;20551;-77
2023/10/28 10:33:11;;;;;;;4.10;2.10;;;13.70;99.90;;;;;;5114560;28;20481;-77
2023/10/28 10:35:38;;;;;;;3.95;1.50;;;13.90;99.90;;;;;;5114558;28;20012;-82
2023/10/28 10:38:10;;;;;;;3.08;1.42;;;13.90;99.90;;;;;;5115888;28;20039;-82
2023/10/28 10:40:41;;;;;;;3.05;1.10;;;13.80;99.90;;;;;;5114770;28;20024;-83
2023/10/28 10:43:11;;;;;;;1.20;1.10;;;13.70;99.90;;;;;;5109001;28;20431;-82
2023/10/28 10:45:37;;;;;;;3.25;1.58;;;13.60;99.90;;;;;;5104552;28;20379;-82
2023/10/28 10:48:06;;;;;;;1.63;1.23;;;13.40;99.90;;;;;;5099909;28;20031;-77
2023/10/28 10:50:32;;;;;;;3.17;1.60;;;13.30;99.90;;;;;;5102036;28;20019;-78
2023/10/28 10:52:59;;;;;;;3.00;1.50;;;13.30;99.90;;;;;;5112661;28;20088;-78
2023/10/28 10:55:27;;;;;;;1.38;1.10;;;13.20;99.90;;;;;;5112116;28;20046;-78
2023/10/28 10:57:53;;;;;;;2.67;1.65;;;13.20;99.90;;;;;;5100316;28;20019;-82
2023/10/28 11:00:19;;;;;;;4.82;1.80;;;13.20;99.90;;;;;;5113908;28;20026;-77
2023/10/28 11:02:47;;;;;;;2.70;1.20;;;13.20;99.90;;;;;;5115332;28;20038;-77
2023/10/28 11:05:13;;;;;;;1.20;1.08;;;13.10;99.90;;;;;;5114170;28;20039;-82
2023/10/28 11:07:41;;;;;;;3.00;1.75;;;13.00;99.90;;;;;;5104308;28;20606;-77
2023/10/28 11:10:08;;;;;;;4.85;1.25;;;13.00;99.90;;;;;;5114055;28;20170;-83
2023/10/28 11:12:34;;;;;;;1.70;1.15;;;13.00;99.90;;;;;;5114489;28;20093;-77
2023/10/28 11:15:00;;;;;;;1.73;1.10;;;13.00;99.90;;;;;;5115329;28;20020;-82
2023/10/28 11:17:26;;;;;;;2.15;1.38;;;13.00;99.90;;;;;;5115160;28;20025;-82
2023/10/28 11:19:52;;;;;;;3.00;1.55;;;13.00;99.90;;;;;;5113678;28;20103;-82
2023/10/28 11:22:18;;;;;;;3.35;1.77;;;13.00;99.90;;;;;;5115194;28;20439;-77
2023/10/28 11:24:44;;;;;;;1.60;1.27;;;13.00;99.90;;;;;;5113522;28;20035;-77
2023/10/28 11:27:18;;;;;;;2.15;1.15;;;13.00;99.90;;;;;;5104926;28;20013;-82
2023/10/28 11:29:44;;;;;;;4.20;1.40;;;13.00;99.90;;;;;;5108970;28;20051;-82
2023/10/28 11:32:10;;;;;;;2.10;1.77;;;13.00;99.90;;;;;;5114770;28;20054;-77
2023/10/28 11:34:40;;;;;;;8.20;1.48;;;13.00;99.90;;;;;;5108130;28;20024;-77
2023/10/28 11:37:11;;;;;;;6.85;1.70;;;13.00;99.90;;;;;;5112627;28;20046;-77
2023/10/28 11:39:40;;;;;;;1.63;1.52;;;13.00;99.90;;;;;;5114303;28;20384;-83
2023/10/28 11:42:14;;;;;;;2.05;1.30;;;13.00;99.90;;;;;;5104734;28;20012;-78
2023/10/28 11:44:41;;;;;;;3.65;1.30;;;13.20;99.90;;;;;;5114182;28;20035;-77
2023/10/28 11:47:08;;;;;;;1.50;1.40;;;13.50;99.90;;;;;;5112679;28;20481;-78
2023/10/28 11:49:34;;;;;;;1.40;1.30;;;13.70;99.90;;;;;;5111834;28;20047;-78
2023/10/28 11:52:00;;;;;;;1.95;1.02;;;13.60;99.90;;;;;;5110890;28;20045;-83
2023/10/28 11:54:26;;;;;;;2.78;1.42;;;13.40;99.60;;;;;;5112323;28;20027;-83
2023/10/28 11:56:52;;;;;;;2.05;1.00;;;13.50;99.90;;;;;;5136348;27;20019;-83
2023/10/28 11:59:18;;;;;;;1.40;1.00;;;13.30;99.90;;;;;;5104830;28;20016;-83
2023/10/28 12:01:43;;;;;;;5.85;1.10;;;13.20;99.90;;;;;;5112545;28;20123;-82
2023/10/28 12:04:09;;;;;;;2.20;2.00;;;13.00;99.90;;;;;;5111366;28;20031;-82
2023/10/28 12:06:35;;;;;;;2.65;1.20;;;13.00;99.90;;;;;;5112396;28;20024;-78
2023/10/28 12:09:04;;;;;;;3.17;1.73;;;12.80;99.90;;;;;;5112245;28;20384;-78
2023/10/28 12:11:31;;;;;;;2.45;1.10;;;12.70;99.90;;;;;;5108596;28;20038;-77
2023/10/28 12:13:57;;;;;;;2.42;1.30;;;12.50;99.90;;;;;;5113174;27;20030;-77
2023/10/28 12:16:23;;;;;;;2.75;1.33;;;12.50;99.90;;;;;;5111699;28;20027;-77
2023/10/28 12:18:49;;;;;;;3.05;1.38;;;12.50;99.90;;;;;;5141514;27;20477;-77
2023/10/28 12:21:18;;;;;;;2.17;1.38;;;12.50;99.90;;;;;;5112154;28;20015;-77
2023/10/28 12:23:44;;;;;;;9.25;1.70;;;12.50;99.90;;;;;;5104827;28;20040;-82
2023/10/28 12:26:13;;;;;;;2.30;1.40;;;12.40;99.90;;;;;;5105818;28;20469;-82
2023/10/28 12:28:38;;;;;;;2.08;1.70;;;12.40;99.90;;;;;;5101827;28;20473;-82
2023/10/28 12:31:04;;;;;;;4.15;2.65;;;12.40;99.90;;;;;;5111633;28;20050;-77
2023/10/28 12:33:32;;;;;;;2.35;2.15;;;12.30;99.90;;;;;;5113548;28;20047;-77
2023/10/28 12:35:57;;;;;;;6.88;2.45;;;12.20;99.90;;;;;;5113417;28;20484;-82
2023/10/28 12:38:24;;;;;;;4.93;2.40;;;12.10;99.90;;;;;;5112046;28;20475;-82